Time;durP1;ratioP1;P1;durP2;ratioP2;P2;SDS_P1;SDS_P2;PMS_P1;PMS_P2;Temp;Humidity;BMP_temperature;BMP_pressure;BME280_temperature;BME280_humidity;BME280_pressure;Samples;Min_cycle;Max_cycle;Signal;HPM_P1;HPM_P2
2022/12/10 00:01:10;;;;;;;24.35;16.60;;;7.70;99.90;;;;;;5090254;28;20028;-80
2022/12/10 00:03:37;;;;;;;25.25;17.70;;;7.70;99.90;;;;;;5089480;28;20024;-79
2022/12/10 00:06:10;;;;;;;30.23;19.38;;;7.70;99.90;;;;;;5081082;28;20033;-79
2022/12/10 00:08:36;;;;;;;27.10;17.75;;;7.70;99.90;;;;;;5060805;28;20502;-79
2022/12/10 00:11:03;;;;;;;27.38;18.00;;;7.60;99.90;;;;;;5076528;28;20036;-80
2022/12/10 00:13:29;;;;;;;27.42;18.52;;;7.60;99.90;;;;;;5069950;28;20077;-80
2022/12/10 00:15:55;;;;;;;34.33;21.65;;;7.50;99.90;;;;;;5070304;28;20111;-80
2022/12/10 00:18:21;;;;;;;29.98;19.95;;;7.40;99.90;;;;;;5068741;28;20025;-80
2022/12/10 00:20:46;;;;;;;29.75;18.85;;;7.40;99.90;;;;;;5068840;28;20017;-80
2022/12/10 00:23:12;;;;;;;29.02;18.30;;;7.50;99.90;;;;;;5069750;28;20261;-80
2022/12/10 00:25:38;;;;;;;29.75;19.30;;;7.50;99.90;;;;;;5073420;28;20047;-80
2022/12/10 00:28:04;;;;;;;33.10;19.25;;;7.50;99.90;;;;;;5072867;28;20024;-80
2022/12/10 00:30:29;;;;;;;30.25;19.42;;;7.30;99.90;;;;;;5073585;28;20478;-80
2022/12/10 00:32:55;;;;;;;34.45;20.20;;;7.30;99.90;;;;;;5073210;28;20032;-80
2022/12/10 00:35:21;;;;;;;31.00;20.63;;;7.30;99.90;;;;;;5074111;28;20548;-80
2022/12/10 00:37:47;;;;;;;38.05;22.90;;;7.20;99.90;;;;;;5073439;28;20032;-80
2022/12/10 00:40:12;;;;;;;35.90;22.25;;;7.10;99.90;;;;;;5072047;28;20024;-80
2022/12/10 00:42:38;;;;;;;31.58;19.95;;;7.20;99.90;;;;;;5077754;28;20555;-80
2022/12/10 00:45:04;;;;;;;30.10;20.02;;;7.30;99.90;;;;;;5072851;28;20033;-80
2022/12/10 00:47:30;;;;;;;32.55;19.88;;;7.30;99.90;;;;;;5072744;28;20056;-80
2022/12/10 00:49:56;;;;;;;31.20;20.33;;;7.20;99.90;;;;;;5073544;28;20055;-80
2022/12/10 00:52:22;;;;;;;31.70;19.42;;;7.20;99.90;;;;;;5073515;28;20032;-80
2022/12/10 00:54:47;;;;;;;28.00;18.40;;;7.20;99.90;;;;;;5072928;28;20024;-80
2022/12/10 00:57:13;;;;;;;27.88;17.90;;;7.20;99.90;;;;;;5073313;28;20032;-80
2022/12/10 00:59:38;;;;;;;28.75;18.13;;;7.20;99.90;;;;;;5082732;28;20024;-80
2022/12/10 01:02:04;;;;;;;32.08;20.95;;;7.10;99.90;;;;;;5092962;28;20035;-80
2022/12/10 01:04:30;;;;;;;36.85;22.17;;;6.90;99.90;;;;;;5093541;28;20146;-80
2022/12/10 01:06:56;;;;;;;42.17;25.65;;;6.70;99.90;;;;;;5076728;28;20039;-80
2022/12/10 01:09:27;;;;;;;41.10;25.25;;;6.50;99.90;;;;;;5072880;28;20027;-80
2022/12/10 01:11:55;;;;;;;37.55;24.13;;;6.50;99.90;;;;;;5072717;28;20028;-80
2022/12/10 01:14:28;;;;;;;39.17;24.20;;;6.50;99.90;;;;;;5072736;28;20025;-80
2022/12/10 01:16:56;;;;;;;34.38;22.25;;;6.60;99.90;;;;;;5072643;28;20078;-80
2022/12/10 01:19:22;;;;;;;32.20;20.60;;;6.60;99.90;;;;;;5073027;28;20052;-80
2022/12/10 01:21:55;;;;;;;31.30;21.88;;;6.60;99.90;;;;;;5072825;28;20070;-80
2022/12/10 01:24:22;;;;;;;33.97;23.05;;;6.30;99.90;;;;;;5072498;28;20077;-79
2022/12/10 01:26:48;;;;;;;34.42;21.88;;;6.50;99.90;;;;;;5070888;28;20080;-79
2022/12/10 01:29:14;;;;;;;31.95;20.90;;;6.50;99.90;;;;;;5072580;28;20056;-79
2022/12/10 01:31:41;;;;;;;30.45;20.05;;;6.50;99.90;;;;;;5070988;28;20029;-80
2022/12/10 01:34:11;;;;;;;28.73;18.83;;;6.40;99.90;;;;;;5072414;28;20024;-80
2022/12/10 01:36:41;;;;;;;30.33;19.67;;;6.40;99.90;;;;;;5071855;28;20013;-79
2022/12/10 01:39:09;;;;;;;32.75;21.35;;;6.20;99.90;;;;;;5072341;28;20017;-80
2022/12/10 01:41:41;;;;;;;32.25;21.27;;;6.20;99.90;;;;;;5072143;28;20063;-80
2022/12/10 01:44:07;;;;;;;34.55;23.70;;;6.10;99.90;;;;;;5067489;28;20091;-80
2022/12/10 01:46:38;;;;;;;33.47;22.55;;;6.00;99.90;;;;;;5072487;28;20028;-80
2022/12/10 01:49:06;;;;;;;37.70;24.88;;;5.90;99.90;;;;;;5072117;28;20025;-80
2022/12/10 01:51:36;;;;;;;34.00;22.17;;;5.90;99.90;;;;;;5072195;28;20052;-80
2022/12/10 01:54:03;;;;;;;33.08;22.73;;;5.80;99.90;;;;;;5070923;28;20032;-80
2022/12/10 01:56:33;;;;;;;31.52;21.73;;;5.80;99.90;;;;;;5070796;28;20078;-80
2022/12/10 01:58:58;;;;;;;32.20;20.85;;;5.80;99.90;;;;;;5070627;28;20020;-80
2022/12/10 02:01:52;;;;;;;35.03;22.17;;;5.70;99.90;;;;;;5082824;28;20069;-80
2022/12/10 02:04:39;;;;;;;31.65;20.65;;;5.80;99.90;;;;;;5090696;28;20020;-80
2022/12/10 02:07:24;;;;;;;31.35;20.38;;;5.80;99.90;;;;;;5090468;28;20081;-80
2022/12/10 02:10:20;;;;;;;29.02;19.27;;;5.80;99.90;;;;;;5071311;28;20021;-80
2022/12/10 02:12:59;;;;;;;32.78;20.83;;;5.70;99.90;;;;;;5071501;28;20115;-80
2022/12/10 02:15:30;;;;;;;31.88;21.13;;;5.60;99.90;;;;;;5071107;28;20021;-80
2022/12/10 02:18:02;;;;;;;28.83;20.45;;;5.70;99.90;;;;;;5069858;28;20571;-80
2022/12/10 02:20:34;;;;;;;25.90;17.75;;;5.70;99.90;;;;;;5071477;28;20470;-80
2022/12/10 02:23:03;;;;;;;;;;;5.60;99.90;;;;;;5071764;28;20021;-80
2022/12/10 02:25:53;;;;;;;30.88;20.17;;;5.60;99.90;;;;;;5070781;28;19904;-80
2022/12/10 02:28:40;;;;;;;29.08;18.85;;;5.60;99.90;;;;;;5068827;28;20051;-80
2022/12/10 02:31:09;;;;;;;28.52;19.50;;;5.70;99.90;;;;;;5071047;28;20056;-80
2022/12/10 02:33:39;;;;;;;28.88;19.08;;;5.60;99.90;;;;;;5071068;28;20028;-80
2022/12/10 02:36:06;;;;;;;26.50;19.30;;;5.60;99.90;;;;;;5070930;28;20020;-80
2022/12/10 02:38:35;;;;;;;29.10;19.65;;;5.50;99.90;;;;;;5071253;28;20028;-80
2022/12/10 02:41:06;;;;;;;32.88;21.13;;;5.30;99.90;;;;;;5071221;28;20032;-80
2022/12/10 02:43:33;;;;;;;32.58;20.90;;;5.40;99.90;;;;;;5081362;28;20067;-80
2022/12/10 02:46:01;;;;;;;32.15;19.77;;;5.30;99.90;;;;;;5090928;28;20123;-80
2022/12/10 02:48:28;;;;;;;32.50;21.55;;;5.40;99.90;;;;;;5079933;28;20024;-80
2022/12/10 02:50:53;;;;;;;37.20;22.60;;;5.20;99.90;;;;;;5069664;28;20028;-80
2022/12/10 02:53:19;;;;;;;32.22;20.50;;;5.30;99.90;;;;;;5071161;28;20021;-80
2022/12/10 02:55:50;;;;;;;30.30;19.45;;;5.20;99.90;;;;;;5071149;28;20504;-80
2022/12/10 02:58:25;;;;;;;33.33;20.88;;;5.20;99.90;;;;;;5070965;28;20020;-80
2022/12/10 03:01:06;;;;;;;32.38;19.25;;;5.10;99.90;;;;;;5070904;28;20052;-80
2022/12/10 03:03:44;;;;;;;30.85;19.25;;;5.00;99.90;;;;;;5086040;28;20070;-81
2022/12/10 03:06:16;;;;;;;28.75;18.80;;;5.10;99.90;;;;;;5069430;28;20032;-80
2022/12/10 03:08:53;;;;;;;32.58;19.58;;;5.10;99.90;;;;;;5063321;28;20093;-80
2022/12/10 03:11:22;;;;;;;31.25;19.67;;;5.00;99.90;;;;;;5090697;28;20067;-80
2022/12/10 03:14:02;;;;;;;26.45;17.63;;;5.00;99.90;;;;;;5091227;28;20077;-80
2022/12/10 03:16:53;;;;;;;26.80;16.88;;;5.10;99.90;;;;;;5090376;28;20053;-80
2022/12/10 03:19:23;;;;;;;28.40;17.52;;;5.20;99.90;;;;;;5090635;28;20127;-80
2022/12/10 03:21:51;;;;;;;26.80;16.83;;;5.10;99.90;;;;;;5090685;28;20027;-80
2022/12/10 03:24:17;;;;;;;27.40;17.60;;;5.10;99.90;;;;;;5079330;28;20509;-80
2022/12/10 03:26:46;;;;;;;29.98;18.73;;;5.00;99.90;;;;;;5070287;28;20051;-80
2022/12/10 03:29:18;;;;;;;30.65;18.10;;;5.10;99.90;;;;;;5070418;28;20127;-80
2022/12/10 03:31:45;;;;;;;29.67;18.90;;;4.90;99.90;;;;;;5070137;28;20033;-79
2022/12/10 03:34:12;;;;;;;29.35;18.20;;;4.80;99.90;;;;;;5070610;28;20027;-80
2022/12/10 03:36:39;;;;;;;26.42;17.17;;;4.70;99.90;;;;;;5085904;28;20032;-80
2022/12/10 03:39:05;;;;;;;27.85;18.27;;;4.60;99.90;;;;;;5070752;28;20044;-80
2022/12/10 03:41:31;;;;;;;28.17;17.05;;;4.70;99.90;;;;;;5070083;28;20029;-80
2022/12/10 03:43:59;;;;;;;27.05;17.23;;;4.80;99.90;;;;;;5070225;28;20074;-80
2022/12/10 03:46:28;;;;;;;27.65;16.80;;;4.70;99.90;;;;;;5068986;28;20024;-80
2022/12/10 03:48:54;;;;;;;31.63;18.83;;;4.70;99.90;;;;;;5069637;28;20555;-80
2022/12/10 03:51:21;;;;;;;27.58;17.73;;;4.60;99.90;;;;;;5070259;28;20040;-80
2022/12/10 03:53:48;;;;;;;31.25;18.77;;;4.50;99.90;;;;;;5069958;28;20086;-80
2022/12/10 03:56:14;;;;;;;26.70;17.27;;;4.30;99.90;;;;;;5070493;28;20025;-80
2022/12/10 03:58:40;;;;;;;34.53;19.15;;;4.50;99.90;;;;;;5070297;28;20020;-80
2022/12/10 04:01:06;;;;;;;31.88;18.83;;;4.20;99.90;;;;;;5073335;28;20090;-80
2022/12/10 04:03:36;;;;;;;28.55;18.38;;;4.10;99.90;;;;;;5072433;28;20020;-80
2022/12/10 04:06:08;;;;;;;27.70;18.10;;;4.10;99.90;;;;;;5074572;28;20119;-80
2022/12/10 04:08:34;;;;;;;28.67;19.00;;;4.30;99.90;;;;;;5064828;28;20032;-80
2022/12/10 04:11:04;;;;;;;29.55;18.70;;;4.10;99.90;;;;;;5094079;28;20111;-80
2022/12/10 04:16:27;;;;;;;24.70;16.80;;;4.10;99.90;;;;;;5093827;28;20484;-80
2022/12/10 04:19:14;;;;;;;29.05;17.48;;;4.00;99.90;;;;;;5093591;28;20505;-80
2022/12/10 04:27:28;;;;;;;29.55;17.02;;;4.20;99.90;;;;;;5093287;28;20054;-80
2022/12/10 04:29:55;;;;;;;26.20;16.40;;;4.10;99.90;;;;;;5092670;28;20031;-80
2022/12/10 04:32:23;;;;;;;25.70;15.50;;;4.00;99.90;;;;;;5085130;28;20123;-80
2022/12/10 04:34:48;;;;;;;25.42;16.65;;;4.30;99.90;;;;;;5073293;28;20029;-80
2022/12/10 04:37:15;;;;;;;28.20;16.85;;;4.10;99.90;;;;;;5085814;28;20031;-80
2022/12/10 04:39:40;;;;;;;26.83;16.23;;;3.90;99.90;;;;;;5074803;28;20035;-80
2022/12/10 04:42:07;;;;;;;29.17;17.52;;;3.80;99.90;;;;;;5076904;28;20378;-80
2022/12/10 04:44:33;;;;;;;27.63;17.02;;;3.70;99.90;;;;;;5074601;28;20026;-80
2022/12/10 04:46:59;;;;;;;25.13;16.73;;;3.90;99.90;;;;;;5072918;28;20036;-80
2022/12/10 04:49:25;;;;;;;25.10;15.90;;;3.90;99.90;;;;;;5073468;28;20029;-81
2022/12/10 04:51:52;;;;;;;22.33;14.13;;;3.80;99.90;;;;;;5085992;28;20052;-80
2022/12/10 04:54:19;;;;;;;25.08;16.30;;;3.90;99.90;;;;;;5074066;28;20526;-80
2022/12/10 04:56:45;;;;;;;23.55;15.45;;;3.60;99.90;;;;;;5083944;28;20035;-81
2022/12/10 04:59:11;;;;;;;21.98;13.82;;;3.60;99.90;;;;;;5091791;28;20073;-80
2022/12/10 05:01:38;;;;;;;22.60;14.75;;;3.80;99.90;;;;;;5091316;28;20039;-80
2022/12/10 05:04:05;;;;;;;21.15;14.45;;;3.60;99.90;;;;;;5092764;28;20552;-80
2022/12/10 05:06:32;;;;;;;22.67;13.93;;;3.60;99.90;;;;;;5093491;28;20024;-80
2022/12/10 05:08:58;;;;;;;22.67;14.77;;;3.60;99.90;;;;;;5075637;28;20066;-80
2022/12/10 05:11:27;;;;;;;20.15;13.57;;;3.70;99.90;;;;;;5072458;28;20103;-80
2022/12/10 05:13:53;;;;;;;19.90;12.50;;;3.60;99.90;;;;;;5071512;28;20021;-80
2022/12/10 05:16:21;;;;;;;17.30;11.60;;;3.60;99.90;;;;;;5072353;28;20112;-80
2022/12/10 05:18:47;;;;;;;21.23;13.02;;;3.50;99.90;;;;;;5072743;28;20020;-80
2022/12/10 05:21:15;;;;;;;18.83;12.05;;;3.40;99.90;;;;;;5071288;28;20024;-80
2022/12/10 05:23:44;;;;;;;18.67;13.55;;;3.20;99.90;;;;;;5072448;28;20056;-81
2022/12/10 05:26:12;;;;;;;23.55;13.10;;;3.10;99.90;;;;;;5071998;28;20052;-81
2022/12/10 05:28:43;;;;;;;24.42;14.98;;;3.10;99.90;;;;;;5072563;28;20024;-81
2022/12/10 05:31:13;;;;;;;22.98;14.25;;;2.80;99.90;;;;;;5071840;28;20111;-81
2022/12/10 05:33:39;;;;;;;22.55;15.00;;;2.70;99.90;;;;;;5072099;28;20032;-80
2022/12/10 05:36:05;;;;;;;26.23;14.82;;;2.90;99.90;;;;;;5070710;28;20035;-81
2022/12/10 05:38:32;;;;;;;25.00;15.15;;;2.80;99.90;;;;;;5081614;28;20027;-81
2022/12/10 05:41:04;;;;;;;23.17;14.35;;;2.70;99.90;;;;;;5090952;28;20020;-81
2022/12/10 05:43:29;;;;;;;27.90;16.10;;;2.50;99.90;;;;;;5076754;28;20209;-81
2022/12/10 05:46:02;;;;;;;26.60;15.55;;;2.40;99.90;;;;;;5071681;28;20103;-81
2022/12/10 05:48:29;;;;;;;24.77;14.23;;;2.50;99.90;;;;;;5060948;28;20023;-81
2022/12/10 05:50:55;;;;;;;22.48;15.30;;;2.50;99.90;;;;;;5087233;28;20040;-81
2022/12/10 05:53:21;;;;;;;25.40;15.48;;;2.40;99.90;;;;;;5092333;28;20024;-81
2022/12/10 05:55:46;;;;;;;27.50;15.82;;;2.40;99.90;;;;;;5091347;28;20387;-81
2022/12/10 05:58:12;;;;;;;24.05;14.88;;;2.50;99.90;;;;;;5091802;28;20035;-81
2022/12/10 06:00:41;;;;;;;21.38;14.05;;;2.40;99.90;;;;;;5091363;28;20028;-81
2022/12/10 06:03:07;;;;;;;28.13;16.75;;;2.20;99.90;;;;;;5090440;28;20059;-81
2022/12/10 06:05:38;;;;;;;27.27;15.98;;;2.20;99.90;;;;;;5091332;28;20035;-81
2022/12/10 06:08:04;;;;;;;25.35;16.27;;;2.10;99.90;;;;;;5082117;28;20034;-81
2022/12/10 06:10:30;;;;;;;25.73;15.80;;;2.20;99.90;;;;;;5071305;28;20059;-81
2022/12/10 06:12:56;;;;;;;27.83;15.43;;;2.20;99.90;;;;;;5069741;28;20029;-81
2022/12/10 06:15:22;;;;;;;26.77;14.98;;;2.40;99.90;;;;;;5070864;28;20024;-81
2022/12/10 06:17:48;;;;;;;24.05;14.52;;;2.60;99.90;;;;;;5070180;28;20024;-81
2022/12/10 06:20:13;;;;;;;22.33;13.60;;;2.50;99.90;;;;;;5073916;28;20551;-81
2022/12/10 06:22:39;;;;;;;22.13;13.73;;;2.60;99.90;;;;;;5091372;28;20024;-81
2022/12/10 06:25:06;;;;;;;19.60;12.43;;;2.80;99.90;;;;;;5090320;28;20119;-81
2022/12/10 06:27:32;;;;;;;20.30;12.20;;;2.90;99.90;;;;;;5091344;28;20053;-81
2022/12/10 06:29:58;;;;;;;20.00;12.43;;;2.90;99.90;;;;;;5089775;28;20060;-81
2022/12/10 06:32:24;;;;;;;21.13;12.45;;;2.90;99.90;;;;;;5082832;28;20062;-81
2022/12/10 06:34:50;;;;;;;21.10;13.20;;;2.70;99.90;;;;;;5070779;28;20032;-81
2022/12/10 06:37:15;;;;;;;21.48;14.40;;;2.40;99.90;;;;;;5082783;28;20393;-81
2022/12/10 06:39:41;;;;;;;22.80;14.35;;;2.20;99.90;;;;;;5091102;28;20020;-81
2022/12/10 06:42:08;;;;;;;22.40;14.38;;;2.00;99.90;;;;;;5086757;28;20398;-81
2022/12/10 06:44:34;;;;;;;24.85;15.07;;;1.90;99.90;;;;;;5070838;28;20021;-81
2022/12/10 06:46:59;;;;;;;25.63;15.20;;;1.90;99.90;;;;;;5070814;28;20039;-81
2022/12/10 06:49:25;;;;;;;25.27;15.23;;;2.00;99.90;;;;;;5062641;28;20020;-81
2022/12/10 06:51:51;;;;;;;24.05;14.15;;;2.00;99.90;;;;;;5089597;28;20437;-81
2022/12/10 06:54:17;;;;;;;21.65;13.77;;;2.00;99.90;;;;;;5072707;28;20393;-81
2022/12/10 06:56:42;;;;;;;19.90;13.13;;;2.20;99.90;;;;;;5082598;28;20195;-81
2022/12/10 06:59:08;;;;;;;20.85;13.57;;;2.40;99.90;;;;;;5090911;28;20036;-81
2022/12/10 07:01:34;;;;;;;23.98;13.68;;;2.20;99.90;;;;;;5091342;28;20024;-81
2022/12/10 07:03:59;;;;;;;21.13;13.68;;;2.30;99.90;;;;;;5072716;28;20092;-81
2022/12/10 07:06:27;;;;;;;22.15;14.27;;;2.30;99.90;;;;;;5070728;28;20165;-81
2022/12/10 07:08:53;;;;;;;25.00;14.27;;;2.20;99.90;;;;;;5072806;28;20028;-81
2022/12/10 07:11:21;;;;;;;23.75;14.27;;;2.10;99.90;;;;;;5070883;28;20111;-81
2022/12/10 07:13:47;;;;;;;25.20;13.43;;;2.10;99.90;;;;;;5069226;28;20502;-81
2022/12/10 07:16:18;;;;;;;23.08;13.60;;;2.20;99.90;;;;;;5080873;28;20062;-81
2022/12/10 07:18:44;;;;;;;23.35;12.10;;;2.50;99.90;;;;;;5090419;28;20020;-81
2022/12/10 07:21:20;;;;;;;20.00;12.15;;;2.30;99.90;;;;;;5090531;28;20032;-81
2022/12/10 07:23:46;;;;;;;17.98;11.43;;;2.40;99.90;;;;;;5090500;28;20052;-81
2022/12/10 07:26:12;;;;;;;18.90;12.32;;;2.40;99.90;;;;;;5088097;28;20538;-81
2022/12/10 07:28:38;;;;;;;17.40;10.60;;;2.40;99.90;;;;;;5069613;28;20056;-81
2022/12/10 07:31:06;;;;;;;19.75;12.48;;;2.30;99.90;;;;;;5070754;28;20398;-81
2022/12/10 07:33:31;;;;;;;19.42;12.23;;;2.20;99.90;;;;;;5070867;28;20036;-81
2022/12/10 07:35:57;;;;;;;20.30;12.00;;;2.10;99.90;;;;;;5074523;28;20040;-81
2022/12/10 07:38:26;;;;;;;20.70;12.50;;;2.10;99.90;;;;;;5073159;28;20559;-81
2022/12/10 07:40:52;;;;;;;19.48;12.10;;;2.00;99.90;;;;;;5074522;28;20032;-81
2022/12/10 07:43:18;;;;;;;22.33;13.07;;;2.10;99.90;;;;;;5074096;28;20029;-81
2022/12/10 07:45:43;;;;;;;19.48;12.20;;;2.30;99.90;;;;;;5074516;28;20039;-82
2022/12/10 07:48:09;;;;;;;17.30;12.23;;;2.20;99.90;;;;;;5074258;28;20029;-82
2022/12/10 07:50:35;;;;;;;19.30;12.90;;;1.90;99.90;;;;;;5076535;28;20029;-82
2022/12/10 07:53:02;;;;;;;18.23;11.75;;;1.90;99.90;;;;;;5073527;28;20032;-81
2022/12/10 07:55:28;;;;;;;17.25;12.48;;;1.90;99.90;;;;;;5074022;28;20107;-83
2022/12/10 07:57:53;;;;;;;18.75;12.00;;;1.90;99.90;;;;;;5072648;28;20150;-80
2022/12/10 08:00:19;;;;;;;18.88;13.02;;;2.10;99.90;;;;;;5073110;28;20489;-80
2022/12/10 08:02:45;;;;;;;18.42;11.65;;;1.90;99.90;;;;;;5071797;28;20038;-80
2022/12/10 08:05:10;;;;;;;17.17;11.07;;;1.90;99.90;;;;;;5075142;28;20086;-80
2022/12/10 08:07:36;;;;;;;18.27;11.60;;;1.90;99.90;;;;;;5087421;28;20021;-81
2022/12/10 08:10:03;;;;;;;19.15;11.50;;;2.00;99.90;;;;;;5073455;28;20505;-80
2022/12/10 08:12:28;;;;;;;19.45;12.23;;;2.10;99.90;;;;;;5082170;28;20025;-80
2022/12/10 08:14:54;;;;;;;19.88;12.48;;;2.00;99.90;;;;;;5089265;28;20499;-80
2022/12/10 08:17:20;;;;;;;22.88;13.45;;;1.80;99.90;;;;;;5089469;28;20456;-80
2022/12/10 08:19:46;;;;;;;20.83;14.10;;;1.50;99.90;;;;;;5075319;28;20028;-80
2022/12/10 08:22:11;;;;;;;24.27;13.65;;;1.40;99.90;;;;;;5073451;28;20026;-80
2022/12/10 08:24:37;;;;;;;19.48;12.85;;;1.30;99.90;;;;;;5073720;28;20017;-80
2022/12/10 08:27:03;;;;;;;20.40;13.15;;;1.40;99.90;;;;;;5072468;28;20045;-81
2022/12/10 08:29:28;;;;;;;21.55;12.30;;;1.50;99.90;;;;;;5074549;28;20556;-80
2022/12/10 08:31:54;;;;;;;21.80;12.88;;;1.50;99.90;;;;;;5071024;28;20016;-81
2022/12/10 08:34:20;;;;;;;22.75;12.70;;;1.50;99.90;;;;;;5070810;28;20489;-81
2022/12/10 08:36:46;;;;;;;20.50;12.75;;;1.70;99.90;;;;;;5071677;28;20025;-81
2022/12/10 08:39:16;;;;;;;21.98;14.23;;;1.60;99.90;;;;;;5072651;28;20027;-81
2022/12/10 08:41:44;;;;;;;22.90;13.57;;;1.40;99.90;;;;;;5080192;28;20020;-81
2022/12/10 08:44:10;;;;;;;22.08;15.15;;;1.20;99.90;;;;;;5067891;28;20032;-80
2022/12/10 08:46:36;;;;;;;22.30;14.40;;;1.20;99.90;;;;;;5080444;28;20016;-81
2022/12/10 08:49:02;;;;;;;24.23;13.32;;;1.10;99.90;;;;;;5074312;28;20055;-81
2022/12/10 08:51:28;;;;;;;17.88;11.38;;;1.40;99.90;;;;;;5066669;28;20060;-81
2022/12/10 08:53:54;;;;;;;22.02;13.38;;;1.60;99.90;;;;;;5067980;28;20062;-81
2022/12/10 08:56:20;;;;;;;19.65;13.32;;;1.30;99.90;;;;;;5068520;28;20020;-81
2022/12/10 08:58:46;;;;;;;21.23;13.80;;;1.30;99.90;;;;;;5073062;28;20035;-81
2022/12/10 09:01:14;;;;;;;20.90;14.48;;;1.30;99.90;;;;;;5079676;28;20486;-82
2022/12/10 09:03:40;;;;;;;22.38;15.73;;;1.20;99.90;;;;;;5069190;28;20025;-81
2022/12/10 09:06:12;;;;;;;21.77;14.18;;;1.10;99.90;;;;;;5070660;28;20512;-82
2022/12/10 09:08:38;;;;;;;20.67;13.80;;;1.20;99.90;;;;;;5071610;28;20035;-82
2022/12/10 09:11:11;;;;;;;21.10;14.63;;;1.40;99.90;;;;;;5069733;28;20032;-81
2022/12/10 09:13:37;;;;;;;20.20;14.02;;;1.30;99.90;;;;;;5070265;28;20031;-81
2022/12/10 09:16:04;;;;;;;18.40;13.27;;;1.20;99.90;;;;;;5071816;28;20028;-82
2022/12/10 09:18:29;;;;;;;17.02;12.40;;;1.40;99.90;;;;;;5071266;28;20149;-82
2022/12/10 09:20:55;;;;;;;17.92;12.38;;;1.30;99.90;;;;;;5073098;28;20107;-82
2022/12/10 09:23:21;;;;;;;19.38;12.32;;;1.40;99.90;;;;;;5068150;28;20024;-82
2022/12/10 09:25:46;;;;;;;16.90;11.82;;;1.50;99.90;;;;;;5019269;28;1426698;-81
2022/12/10 09:28:12;;;;;;;20.27;12.25;;;1.80;99.90;;;;;;5068825;28;20608;-81
2022/12/10 09:30:38;;;;;;;19.05;11.43;;;1.90;99.90;;;;;;5074553;28;20490;-82
2022/12/10 09:33:04;;;;;;;17.77;12.13;;;1.80;99.90;;;;;;5070284;28;20111;-81
2022/12/10 09:35:30;;;;;;;17.85;11.80;;;1.80;99.90;;;;;;5070179;28;20029;-80
2022/12/10 09:37:56;;;;;;;20.45;13.27;;;1.90;99.90;;;;;;5071153;28;20048;-81
2022/12/10 09:40:41;;;;;;;18.30;11.45;;;1.80;99.90;;;;;;5070375;28;20592;-81
2022/12/10 09:43:22;;;;;;;18.60;12.85;;;1.80;99.90;;;;;;5070029;28;20037;-80
2022/12/10 09:45:57;;;;;;;;;;;2.00;99.90;;;;;;5068449;28;20031;-80
2022/12/10 09:49:00;;;;;;;23.48;14.10;;;1.90;99.90;;;;;;5070596;28;19914;-81
2022/12/10 09:51:34;;;;;;;25.52;14.85;;;1.90;99.90;;;;;;5071010;28;20055;-80
2022/12/10 09:54:02;;;;;;;20.10;14.10;;;2.10;99.90;;;;;;5075084;28;20025;-79
2022/12/10 09:56:36;;;;;;;18.58;13.00;;;2.10;99.90;;;;;;5069608;28;20039;-80
2022/12/10 09:59:22;;;;;;;21.60;13.93;;;2.40;99.90;;;;;;5071889;28;20028;-81
2022/12/10 10:02:00;;;;;;;18.00;12.48;;;2.50;99.90;;;;;;5080087;28;20036;-81
2022/12/10 10:04:26;;;;;;;18.38;12.00;;;2.50;99.90;;;;;;5069757;28;20363;-81
2022/12/10 10:06:52;;;;;;;16.52;11.82;;;2.50;99.90;;;;;;5068445;28;20445;-81
2022/12/10 10:09:19;;;;;;;19.20;12.73;;;2.50;99.90;;;;;;5066739;28;20374;-82
2022/12/10 10:11:45;;;;;;;17.25;10.88;;;2.40;99.90;;;;;;5078745;28;20028;-82
2022/12/10 10:14:25;;;;;;;16.92;11.43;;;2.40;99.90;;;;;;5085313;28;20017;-82
2022/12/10 10:17:10;;;;;;;16.25;10.80;;;2.10;99.90;;;;;;5068005;28;20056;-82
2022/12/10 10:19:38;;;;;;;13.35;10.35;;;2.00;99.90;;;;;;5068335;28;20195;-83
2022/12/10 10:22:05;;;;;;;17.05;10.48;;;2.20;99.90;;;;;;5069357;28;20076;-81
2022/12/10 10:24:36;;;;;;;16.80;11.15;;;2.30;99.90;;;;;;5067897;28;20032;-81
2022/12/10 10:27:19;;;;;;;14.75;10.25;;;2.30;99.90;;;;;;5068935;28;20052;-81
2022/12/10 10:29:47;;;;;;;17.52;11.00;;;2.40;99.90;;;;;;5067092;28;20040;-81
2022/12/10 10:32:18;;;;;;;15.88;10.77;;;2.60;99.90;;;;;;5066941;28;20028;-81
2022/12/10 10:34:45;;;;;;;17.30;11.50;;;2.80;99.90;;;;;;5067094;28;20029;-83
2022/12/10 10:37:22;;;;;;;16.65;11.60;;;2.80;99.90;;;;;;5067853;28;20036;-84
2022/12/10 10:39:50;;;;;;;17.85;11.15;;;2.90;99.90;;;;;;5068241;28;20024;-86
2022/12/10 10:42:36;;;;;;;17.00;10.55;;;3.20;99.90;;;;;;5067317;28;20024;-86
2022/12/10 10:45:05;;;;;;;16.85;10.60;;;3.10;99.90;;;;;;5069396;28;20032;-84
2022/12/10 10:47:33;;;;;;;15.40;11.07;;;3.00;99.90;;;;;;5065260;28;20409;-84
2022/12/10 10:49:59;;;;;;;16.98;11.85;;;2.80;99.90;;;;;;5066690;28;20469;-84
2022/12/10 10:52:30;;;;;;;18.95;13.35;;;2.60;99.90;;;;;;5069653;28;20051;-85
2022/12/10 10:54:56;;;;;;;17.33;11.60;;;2.40;99.90;;;;;;5064910;28;20028;-83
2022/12/10 10:57:26;;;;;;;17.35;11.00;;;2.30;99.90;;;;;;5064822;28;20020;-85
2022/12/10 10:59:56;;;;;;;16.88;10.50;;;2.80;99.90;;;;;;5062151;28;20025;-84
2022/12/10 11:02:35;;;;;;;13.50;9.75;;;2.90;99.90;;;;;;5069071;28;20033;-82
2022/12/10 11:05:15;;;;;;;15.10;11.00;;;3.00;99.90;;;;;;5084541;28;20028;-84
2022/12/10 11:07:41;;;;;;;13.43;9.68;;;3.20;99.90;;;;;;5075376;28;20036;-84
2022/12/10 11:10:28;;;;;;;12.40;9.82;;;3.20;99.90;;;;;;5064544;28;20270;-83
2022/12/10 11:13:05;;;;;;;16.35;10.07;;;2.90;99.90;;;;;;5068846;28;20043;-85
2022/12/10 11:15:35;;;;;;;16.13;10.38;;;2.90;99.90;;;;;;5068846;28;20039;-84
2022/12/10 11:18:02;;;;;;;16.15;10.52;;;3.20;99.90;;;;;;5068701;28;20020;-84
2022/12/10 11:20:34;;;;;;;12.32;8.88;;;3.00;99.90;;;;;;5067998;28;20032;-83
2022/12/10 11:23:09;;;;;;;17.92;9.68;;;3.20;99.90;;;;;;5069414;28;20025;-81
2022/12/10 11:26:19;;;;;;;14.52;9.15;;;3.60;99.90;;;;;;5068963;28;20048;-81
2022/12/10 11:28:53;;;;;;;14.27;9.98;;;4.20;99.90;;;;;;5048687;28;20121;-82
2022/12/10 11:31:40;;;;;;;21.40;12.93;;;4.00;99.90;;;;;;5069257;28;20055;-81
2022/12/10 11:34:15;;;;;;;19.98;10.88;;;4.20;99.90;;;;;;5070215;28;20125;-81
2022/12/10 11:36:47;;;;;;;14.73;10.05;;;3.80;99.90;;;;;;5071373;28;20048;-81
2022/12/10 11:39:19;;;;;;;15.10;9.70;;;4.10;99.90;;;;;;5067766;28;20146;-82
2022/12/10 11:42:09;;;;;;;15.45;9.93;;;4.10;99.90;;;;;;5067416;28;20028;-83
2022/12/10 11:44:56;;;;;;;12.48;9.35;;;3.80;99.90;;;;;;5069289;28;20021;-83
2022/12/10 11:47:25;;;;;;;14.95;9.32;;;3.90;99.90;;;;;;5074042;28;20048;-83
2022/12/10 11:50:06;;;;;;;13.88;8.95;;;4.00;99.90;;;;;;5068471;28;20025;-85
2022/12/10 11:53:01;;;;;;;14.10;9.20;;;4.10;99.90;;;;;;5068430;28;20047;-85
2022/12/10 11:55:38;;;;;;;14.38;8.60;;;4.20;99.90;;;;;;5068276;28;20127;-83
2022/12/10 11:58:33;;;;;;;10.25;7.72;;;4.90;99.90;;;;;;5069461;28;20050;-82
2022/12/10 12:01:09;;;;;;;10.85;7.72;;;3.80;99.90;;;;;;5057139;28;20195;-82
2022/12/10 12:03:57;;;;;;;13.05;9.20;;;3.80;99.90;;;;;;5069422;28;20024;-82
2022/12/10 12:06:52;;;;;;;13.27;8.00;;;4.20;99.90;;;;;;5069394;28;20043;-82
2022/12/10 12:09:37;;;;;;;13.15;8.00;;;4.70;99.90;;;;;;5069063;28;20020;-82
2022/12/10 12:12:20;;;;;;;12.07;8.70;;;4.60;99.90;;;;;;5069386;28;20103;-82
2022/12/10 12:14:56;;;;;;;15.25;9.02;;;4.60;99.90;;;;;;5069532;28;20028;-82
2022/12/10 12:17:39;;;;;;;11.45;8.23;;;4.80;99.90;;;;;;5073174;28;20028;-82
2022/12/10 12:20:14;;;;;;;10.43;7.70;;;4.90;99.90;;;;;;5073431;28;20024;-82
2022/12/10 12:22:46;;;;;;;9.45;7.22;;;4.90;99.90;;;;;;5071759;28;20032;-83
2022/12/10 12:25:22;;;;;;;10.40;7.72;;;5.10;99.90;;;;;;5072608;28;20043;-82
2022/12/10 12:27:53;;;;;;;10.32;7.38;;;5.00;99.90;;;;;;5080304;28;20119;-82
2022/12/10 12:30:21;;;;;;;9.10;7.55;;;4.80;99.90;;;;;;5072617;28;20020;-83
2022/12/10 12:32:54;;;;;;;10.65;7.40;;;4.60;99.90;;;;;;5072242;28;20309;-83
2022/12/10 12:35:30;;;;;;;10.15;7.32;;;4.60;99.90;;;;;;5072955;28;20039;-83
2022/12/10 12:38:27;;;;;;;11.85;7.68;;;4.50;99.90;;;;;;5071315;28;20409;-83
2022/12/10 12:40:55;;;;;;;9.70;7.13;;;4.60;99.90;;;;;;5070432;28;20110;-83
2022/12/10 12:43:51;;;;;;;8.57;6.18;;;4.80;99.90;;;;;;5077271;28;20017;-83
2022/12/10 12:46:37;;;;;;;9.43;6.88;;;4.60;99.90;;;;;;5050608;28;20048;-83
2022/12/10 12:49:43;;;;;;;10.10;6.82;;;4.90;99.90;;;;;;5076307;28;20051;-83
2022/12/10 12:52:25;;;;;;;8.95;6.65;;;4.50;99.90;;;;;;5029825;28;20049;-82
2022/12/10 12:54:57;;;;;;;8.65;6.22;;;5.00;99.90;;;;;;5029886;28;20048;-83
2022/12/10 12:57:30;;;;;;;10.20;6.70;;;4.70;99.90;;;;;;5029892;28;20045;-84
2022/12/10 13:00:25;;;;;;;10.60;6.32;;;4.80;99.90;;;;;;5040411;28;20033;-84
2022/12/10 13:03:18;;;;;;;9.25;6.38;;;4.80;99.90;;;;;;5016123;28;20084;-83